Terminal Aerodrome Forecast
Issued by NWS Charleston, WV

Current Version | Previous Version | Text Only | Print | Product List | Glossary Off
Versions: 1 2 3 4 5 6 7 8 9 10 11 12 13 14 15 16 17 18 19 20 21

000
FTUS41 KRLX 282300
TAFEKN
TAF
KEKN 282339Z 2900/2924 25011G16KT P6SM BKN050
     FM290100 22007KT 5SM -SHRA BKN035
     FM290200 27006KT 4SM -SHRA BR BKN025
      TEMPO 2902/2904 28008G15KT 2SM SHRA BR BKN015
     FM290700 26005KT 5SM -SHRA BR OVC020
     FM291000 29006KT 6SM BR BKN040
     FM291400 26007KT P6SM SCT050 BKN100
     FM291600 27010G18KT P6SM SCT050
     FM292300 28008KT P6SM BKN040=

USA.gov is the U.S. government's official web portal to all federal, state and local government web resources and services.